Fort Stockton Pecos County Airport
KFST : rendu visible

Aérodrome :











RETROUVEZ-NOUS SUR...

 
LOGIN :

S'inscrire | Disclaimer

   EN    FR    IT 

 









Légende :    VFR   VFR Marginal   IFR   IFR Intensif   IFR Très Intensif
Visi : 
Plafond : 
>= 8 km
>= 3000ft
5 à 8 km
1000 à 3000 ft
1500m à 5 km
500 à 1000 ft
800 à 1500m
200 à 500 ft
< 800m
< 200 ft
Symboles :   Orages  Brouillard  Fortes neiges  Fortes précipitations  Vent > 20 kt






- Altitude de l'aérodrome : 3011 ft


KFST - Fort Stockton Pecos County

DERNIER METAR :
  • 311953Z AUTO 14010G19KT 10SM CLR 27/12 A3013 RMK AO2 SLP161 T02720122

METARs EXPIRÉS :
  • 311853Z AUTO 12012KT 10SM CLR 26/11 A3015 RMK AO2 SLP168 T02610106
  • 311753Z AUTO 13010G17KT 10SM CLR 26/11 A3018 RMK AO2 SLP176 T02610106 10261 20150 58006

TAF KFST
Valide du 31 à 18h jusqu'au 01 à 18h UTC


311720Z 3118/0118 14010KT P6SM FEW250
FIR KZAB / Amérique du Nord



MET'MAP, la Météo Aéronautique d'un coup d'oeil ! - Copyright ORBIFLY Décembre 2007 - Disclaimer

ORBIFLY MET'MAP TEAM :

Programmation & Développement : Alexandra Zaïnal
Sur une idée originale de : Baudouin d'Aumeries
Assistance à la programmation : Marc-Olivier Méhu
Soutien technique & logistique : Manuel Goepfert

Contact : metmap@orbifly.com




SOURCES & CREDITS :

   NOAA       Earth
Advisory